Portada
METAR-TAF:

METAR-TAF

Aeropuertos :

Kermán, Irán

latitud: 30-15N, longitud: 056-58E, altitud: 1748 m

Observación

El informe se hizo hace 17 minutos, a las 20:00 UTC
Viento 4 kt del oeste-noroeste
Temperatura -1°C
Humedad 46%
Presión 1024 hPa
Visibilidad 10 km o más
sin nubes por debajo de 1500 m y sin presencia de cumulonimbus.

METAR: OIKK 202000Z 30004KT CAVOK M01/M11 Q1023 A3023

Hora: 23:47 (20:17 UTC)

Pronóstico

El informe se hizo hace 2 horas y 47 minutos, a las 17:30 UTC
Pronóstico válido del 20 a las 18 UTC al 21 a las 24 UTC
Viento 8 kt del norte
Visibilidad: 8000 m

TAF: OIKK 201730Z 2018/2124 35008KT 8000 NSC

Observaciones y pronósticos meteorológicos de más de 4000 aeropuertos (mensajes METAR y TAF).

Los puntos amarillos y rojos representan las estaciones disponibles.

Ponga el ratón en el punto deseado para ver el nombre de la estación.

Haga clic para ver las observaciones y los pronósticos meteorológicos.

Para cambiar el mapa : haga clic en los botones verdes con una cruz de color negro para hacer un zoom, en el botón verde con un guión para alejar o en las flechas verdes para mapas adyacentes.


METAR-TAF: